Time;durP1;ratioP1;P1;durP2;ratioP2;P2;SDS_P1;SDS_P2;PMS_P1;PMS_P2;Temp;Humidity;BMP_temperature;BMP_pressure;BME280_temperature;BME280_humidity;BME280_pressure;Samples;Min_cycle;Max_cycle;Signal;HPM_P1;HPM_P2
2022/09/13 00:00:19;;;;;;;4.68;3.28;;;;;;;;;;5013879;28;20026;-78
2022/09/13 00:02:45;;;;;;;3.47;2.78;;;;;;;;;;5013716;28;20113;-77
2022/09/13 00:05:11;;;;;;;4.05;2.75;;;;;;;;;;5013358;28;20508;-78
2022/09/13 00:07:37;;;;;;;2.65;2.33;;;;;;;;;;5013600;28;20026;-78
2022/09/13 00:10:03;;;;;;;4.05;2.90;;;;;;;;;;5013423;28;20105;-78
2022/09/13 00:12:30;;;;;;;3.55;2.63;;;;;;;;;;5013649;28;20033;-78
2022/09/13 00:14:56;;;;;;;3.65;2.80;;;;;;;;;;5013462;28;20028;-78
2022/09/13 00:17:22;;;;;;;3.45;2.95;;;;;;;;;;5013259;28;20044;-79
2022/09/13 00:19:48;;;;;;;5.43;3.10;;;;;;;;;;5013653;28;20049;-79
2022/09/13 00:22:14;;;;;;;5.10;4.13;;;;;;;;;;5013283;28;20105;-78
2022/09/13 00:24:40;;;;;;;4.75;3.00;;;;;;;;;;5013336;28;20038;-78
2022/09/13 00:27:06;;;;;;;3.30;2.67;;;;;;;;;;5013276;28;20088;-78
2022/09/13 00:29:32;;;;;;;4.30;3.30;;;;;;;;;;5013414;28;20029;-79
2022/09/13 00:31:58;;;;;;;4.10;3.47;;;;;;;;;;5013294;28;20473;-79
2022/09/13 00:34:24;;;;;;;4.45;3.53;;;;;;;;;;4967206;28;1338978;-81
2022/09/13 00:36:50;;;;;;;3.53;3.22;;;;;;;;;;5014194;28;20513;-79
2022/09/13 00:39:16;;;;;;;3.70;3.40;;;;;;;;;;5013914;28;20030;-78
2022/09/13 00:41:42;;;;;;;3.70;3.35;;;;;;;;;;5014065;28;20022;-77
2022/09/13 00:44:27;;;;;;;3.90;3.20;;;;;;;;;;5013933;28;20044;-79
2022/09/13 00:46:53;;;;;;;;;;;;;;;;;;5013618;28;20030;-77
2022/09/13 00:49:19;;;;;;;3.65;3.35;;;;;;;;;;5013805;28;20376;-78
2022/09/13 00:51:47;;;;;;;3.47;3.17;;;;;;;;;;5014012;28;20045;-78
2022/09/13 00:54:15;;;;;;;4.60;3.60;;;;;;;;;;5013538;28;20037;-77
2022/09/13 00:56:44;;;;;;;3.55;3.25;;;;;;;;;;5013864;28;20033;-79
2022/09/13 00:59:15;;;;;;;5.28;2.83;;;;;;;;;;5013581;28;20119;-78
2022/09/13 01:01:45;;;;;;;3.95;3.03;;;;;;;;;;5013893;28;20044;-80
2022/09/13 01:04:11;;;;;;;5.65;3.22;;;;;;;;;;5013545;28;20109;-79
2022/09/13 01:06:39;;;;;;;3.22;2.78;;;;;;;;;;5013628;28;20499;-78
2022/09/13 01:09:05;;;;;;;3.40;3.10;;;;;;;;;;5013474;28;20488;-81
2022/09/13 01:11:54;;;;;;;3.30;2.80;;;;;;;;;;5013613;28;20022;-78
2022/09/13 01:14:22;;;;;;;4.32;3.17;;;;;;;;;;5013466;28;20029;-79
2022/09/13 01:16:48;;;;;;;4.45;3.00;;;;;;;;;;5013251;28;20077;-78
2022/09/13 01:19:14;;;;;;;3.55;3.03;;;;;;;;;;5013285;28;20025;-79
2022/09/13 01:21:59;;;;;;;3.40;3.00;;;;;;;;;;5013174;28;20044;-79
2022/09/13 01:24:25;;;;;;;4.05;2.78;;;;;;;;;;5012939;28;20037;-77
2022/09/13 01:27:09;;;;;;;2.97;2.55;;;;;;;;;;5013173;28;20026;-79
2022/09/13 01:29:38;;;;;;;3.25;2.80;;;;;;;;;;5013128;28;20037;-77
2022/09/13 01:32:14;;;;;;;4.25;3.00;;;;;;;;;;5013080;28;20149;-78
2022/09/13 01:34:58;;;;;;;3.30;2.85;;;;;;;;;;5013011;28;20052;-79
2022/09/13 01:37:43;;;;;;;4.05;3.05;;;;;;;;;;5013121;28;20079;-78
2022/09/13 01:40:21;;;;;;;3.70;2.88;;;;;;;;;;5013175;28;20485;-78
2022/09/13 01:42:53;;;;;;;3.80;2.80;;;;;;;;;;5013079;28;20056;-79
2022/09/13 01:45:22;;;;;;;5.80;3.13;;;;;;;;;;5012745;28;20029;-79
2022/09/13 01:47:51;;;;;;;5.97;2.65;;;;;;;;;;5013001;28;20429;-79
2022/09/13 01:50:36;;;;;;;2.85;2.55;;;;;;;;;;5012705;28;20038;-78
2022/09/13 01:53:21;;;;;;;4.28;2.78;;;;;;;;;;5015483;28;20022;-79
2022/09/13 01:55:47;;;;;;;;;;;;;;;;;;5020800;28;20034;-78
2022/09/13 01:58:20;;;;;;;4.20;3.28;;;;;;;;;;5021316;28;19912;-79
2022/09/13 02:01:07;;;;;;;3.97;3.10;;;;;;;;;;5020183;28;20353;-78
2022/09/13 02:03:36;;;;;;;3.30;2.63;;;;;;;;;;5021640;28;20068;-77
2022/09/13 02:06:06;;;;;;;3.58;2.72;;;;;;;;;;5018901;28;20444;-80
2022/09/13 02:08:51;;;;;;;2.83;2.50;;;;;;;;;;5021302;28;20436;-77
2022/09/13 02:11:21;;;;;;;3.35;2.67;;;;;;;;;;5022307;28;20017;-78
2022/09/13 02:13:54;;;;;;;4.32;2.30;;;;;;;;;;5022061;28;20049;-78
2022/09/13 02:16:39;;;;;;;3.88;2.60;;;;;;;;;;5021097;28;20093;-77
2022/09/13 02:19:17;;;;;;;3.92;2.85;;;;;;;;;;5019408;28;20492;-79
2022/09/13 02:21:46;;;;;;;2.33;2.10;;;;;;;;;;5020999;28;20026;-79
2022/09/13 02:24:15;;;;;;;3.10;2.42;;;;;;;;;;5021408;28;20036;-79
2022/09/13 02:26:45;;;;;;;3.08;2.78;;;;;;;;;;5022543;28;20033;-80
2022/09/13 02:29:15;;;;;;;3.60;3.20;;;;;;;;;;5021051;28;20034;-77
2022/09/13 02:31:51;;;;;;;4.05;3.05;;;;;;;;;;5020426;28;20018;-79
2022/09/13 02:34:22;;;;;;;6.28;2.70;;;;;;;;;;5020494;28;20096;-78
2022/09/13 02:36:50;;;;;;;3.42;3.13;;;;;;;;;;5021969;28;20017;-79
2022/09/13 02:39:17;;;;;;;3.53;3.20;;;;;;;;;;5022898;28;20548;-80
2022/09/13 02:41:58;;;;;;;4.32;3.33;;;;;;;;;;5021004;28;20396;-79
2022/09/13 02:44:42;;;;;;;4.07;3.40;;;;;;;;;;5018651;28;20072;-78
2022/09/13 02:47:21;;;;;;;6.22;3.72;;;;;;;;;;5020142;28;20030;-80
2022/09/13 02:50:06;;;;;;;3.38;3.08;;;;;;;;;;5002794;28;20033;-80
2022/09/13 02:52:36;;;;;;;3.63;3.33;;;;;;;;;;5020847;28;20480;-80
2022/09/13 02:55:22;;;;;;;3.97;3.30;;;;;;;;;;5008015;28;20032;-80
2022/09/13 02:57:48;;;;;;;4.35;3.30;;;;;;;;;;5019921;28;20022;-81
2022/09/13 03:00:14;;;;;;;5.60;3.65;;;;;;;;;;5020924;28;20097;-78
2022/09/13 03:02:42;;;;;;;3.70;3.40;;;;;;;;;;5022726;28;20053;-78
2022/09/13 03:05:09;;;;;;;5.07;3.33;;;;;;;;;;5021617;28;20104;-78
2022/09/13 03:07:35;;;;;;;3.47;3.17;;;;;;;;;;5020472;28;20018;-77
2022/09/13 03:10:05;;;;;;;3.55;3.15;;;;;;;;;;5026264;28;20056;-81
2022/09/13 03:12:34;;;;;;;3.33;3.03;;;;;;;;;;5035373;28;20022;-78
2022/09/13 03:15:00;;;;;;;5.43;2.63;;;;;;;;;;5035562;28;20049;-80
2022/09/13 03:17:29;;;;;;;4.65;3.63;;;;;;;;;;5035254;28;20030;-79
2022/09/13 03:20:07;;;;;;;4.20;3.80;;;;;;;;;;5035489;28;20029;-80
2022/09/13 03:22:39;;;;;;;6.72;4.43;;;;;;;;;;5035485;28;20025;-79
2022/09/13 03:25:14;;;;;;;5.38;3.25;;;;;;;;;;5035178;28;20065;-81
2022/09/13 03:27:41;;;;;;;4.03;2.92;;;;;;;;;;5035336;28;20033;-79
2022/09/13 03:30:08;;;;;;;3.65;3.13;;;;;;;;;;5035138;28;20017;-80
2022/09/13 03:32:34;;;;;;;4.78;3.65;;;;;;;;;;5035282;28;20132;-79
2022/09/13 03:35:09;;;;;;;5.43;3.45;;;;;;;;;;5034957;28;20045;-81
2022/09/13 03:37:54;;;;;;;3.58;3.13;;;;;;;;;;5035123;28;20021;-79
2022/09/13 03:40:20;;;;;;;;;;;;;;;;;;5035413;28;20028;-78
2022/09/13 03:42:50;;;;;;;3.47;3.03;;;;;;;;;;5034742;28;19905;-78
2022/09/13 03:45:18;;;;;;;4.38;3.53;;;;;;;;;;5035100;28;20037;-78
2022/09/13 03:47:45;;;;;;;3.65;3.35;;;;;;;;;;5034740;28;20045;-80
2022/09/13 03:50:14;;;;;;;5.68;3.40;;;;;;;;;;5035145;28;20097;-77
2022/09/13 03:52:41;;;;;;;5.68;4.43;;;;;;;;;;5034447;28;20021;-79
2022/09/13 03:55:07;;;;;;;5.55;4.30;;;;;;;;;;5034805;28;20075;-78
2022/09/13 03:57:33;;;;;;;4.05;3.53;;;;;;;;;;5034634;28;20033;-78
2022/09/13 03:59:59;;;;;;;4.43;2.80;;;;;;;;;;5034609;28;20025;-80
2022/09/13 04:02:26;;;;;;;3.33;3.03;;;;;;;;;;5034607;28;20045;-80
2022/09/13 04:04:52;;;;;;;3.22;2.72;;;;;;;;;;5034351;28;20036;-84
2022/09/13 04:07:19;;;;;;;18.75;16.75;;;;;;;;;;5034774;28;20022;-83
2022/09/13 04:09:46;;;;;;;41.28;34.00;;;;;;;;;;5034281;28;20413;-84
2022/09/13 04:12:13;;;;;;;7.35;5.97;;;;;;;;;;5034641;28;20049;-86
2022/09/13 04:14:39;;;;;;;4.53;3.40;;;;;;;;;;5016953;28;20071;-85
2022/09/13 04:17:06;;;;;;;4.97;3.22;;;;;;;;;;5035884;28;20076;-84
2022/09/13 04:19:32;;;;;;;4.53;3.15;;;;;;;;;;5016182;28;20361;-82
2022/09/13 04:21:58;;;;;;;3.92;2.95;;;;;;;;;;5033328;28;20025;-82
2022/09/13 04:24:29;;;;;;;3.58;3.08;;;;;;;;;;5016473;28;20416;-89
2022/09/13 04:26:56;;;;;;;9.48;4.25;;;;;;;;;;5033932;28;20112;-81
2022/09/13 04:29:24;;;;;;;4.63;3.20;;;;;;;;;;5034302;28;20057;-83
2022/09/13 04:31:50;;;;;;;4.32;3.65;;;;;;;;;;5033907;28;20108;-84
2022/09/13 04:34:17;;;;;;;7.45;5.63;;;;;;;;;;5034220;28;20500;-81
2022/09/13 04:36:43;;;;;;;23.90;17.33;;;;;;;;;;5034018;28;20369;-84
2022/09/13 04:39:09;;;;;;;6.50;4.28;;;;;;;;;;5034186;28;20022;-84
2022/09/13 04:41:35;;;;;;;4.32;2.55;;;;;;;;;;5016463;28;20460;-87
2022/09/13 04:44:02;;;;;;;4.80;2.92;;;;;;;;;;5016520;28;20018;-82
2022/09/13 04:46:28;;;;;;;4.65;3.08;;;;;;;;;;5033710;28;20021;-86
2022/09/13 04:48:55;;;;;;;4.57;2.80;;;;;;;;;;5033768;28;20030;-81
2022/09/13 04:51:22;;;;;;;4.53;2.95;;;;;;;;;;5033996;28;20033;-88
2022/09/13 04:53:55;;;;;;;4.90;2.92;;;;;;;;;;5015985;28;20029;-82
2022/09/13 04:56:22;;;;;;;2.90;2.60;;;;;;;;;;5016380;28;20134;-82
2022/09/13 04:58:52;;;;;;;4.55;2.67;;;;;;;;;;5033484;28;20056;-83
2022/09/13 05:01:18;;;;;;;4.28;2.92;;;;;;;;;;5033824;28;20075;-83
2022/09/13 05:03:45;;;;;;;3.85;3.05;;;;;;;;;;5032993;28;20120;-84
2022/09/13 05:06:16;;;;;;;3.65;2.95;;;;;;;;;;5033162;28;20029;-82
2022/09/13 05:08:43;;;;;;;4.85;2.88;;;;;;;;;;5033234;28;20063;-86
2022/09/13 05:11:09;;;;;;;3.38;2.58;;;;;;;;;;5033521;28;20067;-88
2022/09/13 05:13:35;;;;;;;5.30;3.08;;;;;;;;;;5033297;28;20022;-83
2022/09/13 05:16:03;;;;;;;4.20;3.03;;;;;;;;;;5033428;28;20029;-85
2022/09/13 05:18:30;;;;;;;3.72;2.80;;;;;;;;;;5033232;28;20397;-83
2022/09/13 05:20:57;;;;;;;3.85;2.92;;;;;;;;;;5033119;28;20583;-85
2022/09/13 05:23:23;;;;;;;4.40;3.00;;;;;;;;;;5031190;28;20468;-82
2022/09/13 05:26:00;;;;;;;4.03;3.10;;;;;;;;;;5033047;28;20492;-82
2022/09/13 05:28:27;;;;;;;3.80;2.78;;;;;;;;;;5033084;28;20037;-80
2022/09/13 05:30:54;;;;;;;6.32;2.80;;;;;;;;;;5008232;28;20030;-82
2022/09/13 05:33:21;;;;;;;3.10;2.85;;;;;;;;;;4995985;28;20025;-82
2022/09/13 05:35:47;;;;;;;3.83;2.80;;;;;;;;;;5007269;28;20030;-81
2022/09/13 05:38:13;;;;;;;3.70;3.10;;;;;;;;;;5025430;28;20539;-80
2022/09/13 05:40:39;;;;;;;3.63;2.42;;;;;;;;;;5005367;28;20037;-81
2022/09/13 05:43:05;;;;;;;4.70;3.17;;;;;;;;;;5009539;28;20041;-83
2022/09/13 05:45:31;;;;;;;4.03;3.10;;;;;;;;;;5008263;28;20500;-85
2022/09/13 05:47:57;;;;;;;3.00;2.30;;;;;;;;;;5001181;28;20037;-84
2022/09/13 05:50:23;;;;;;;4.55;2.75;;;;;;;;;;5011936;28;20026;-82
2022/09/13 05:52:53;;;;;;;3.00;2.35;;;;;;;;;;5011598;28;20033;-83
2022/09/13 05:55:20;;;;;;;5.15;2.90;;;;;;;;;;5011640;28;20025;-82
2022/09/13 05:57:46;;;;;;;2.95;2.60;;;;;;;;;;5010944;28;20026;-83
2022/09/13 06:00:12;;;;;;;4.50;2.80;;;;;;;;;;5014688;28;20033;-85
2022/09/13 06:02:38;;;;;;;3.35;2.72;;;;;;;;;;5011082;28;20412;-85
2022/09/13 06:05:05;;;;;;;3.05;2.03;;;;;;;;;;5011178;28;20026;-83
2022/09/13 06:07:31;;;;;;;3.70;2.92;;;;;;;;;;5011896;28;20385;-81
2022/09/13 06:09:57;;;;;;;3.63;2.90;;;;;;;;;;5011207;28;20026;-85
2022/09/13 06:12:23;;;;;;;6.93;2.53;;;;;;;;;;5010849;28;20766;-87
2022/09/13 06:14:50;;;;;;;3.80;2.55;;;;;;;;;;5011027;28;20030;-83
2022/09/13 06:17:16;;;;;;;5.30;3.20;;;;;;;;;;5011135;28;20080;-83
2022/09/13 06:19:43;;;;;;;4.35;2.90;;;;;;;;;;5011005;28;20025;-80
2022/09/13 06:22:09;;;;;;;4.93;2.90;;;;;;;;;;5009707;28;20029;-79
2022/09/13 06:27:20;;;;;;;3.38;3.08;;;;;;;;;;5013361;28;20052;-80
2022/09/13 06:29:46;;;;;;;4.70;2.45;;;;;;;;;;5017971;28;20033;-81
2022/09/13 06:32:12;;;;;;;4.40;2.70;;;;;;;;;;5018701;28;20033;-79
2022/09/13 06:34:39;;;;;;;3.35;2.80;;;;;;;;;;5012261;28;20102;-83
2022/09/13 06:37:05;;;;;;;3.67;2.83;;;;;;;;;;5003892;28;20034;-81
2022/09/13 06:39:33;;;;;;;4.53;3.22;;;;;;;;;;4993167;28;20031;-80
2022/09/13 06:41:59;;;;;;;6.43;3.10;;;;;;;;;;5010773;28;20068;-80
2022/09/13 06:44:25;;;;;;;4.05;2.88;;;;;;;;;;5012277;28;20026;-81
2022/09/13 06:46:51;;;;;;;5.97;3.33;;;;;;;;;;5014413;28;20544;-81
2022/09/13 06:49:17;;;;;;;3.65;3.10;;;;;;;;;;5014589;28;20508;-81
2022/09/13 06:51:43;;;;;;;4.25;2.72;;;;;;;;;;5012953;28;20022;-79
2022/09/13 06:54:09;;;;;;;8.20;4.22;;;;;;;;;;4997346;28;20765;-81
2022/09/13 06:56:37;;;;;;;8.68;7.15;;;;;;;;;;4994883;28;20576;-80
2022/09/13 06:59:04;;;;;;;3.83;2.50;;;;;;;;;;4994941;28;20027;-77
2022/09/13 07:01:35;;;;;;;4.38;2.90;;;;;;;;;;4995046;28;20049;-80
2022/09/13 07:04:01;;;;;;;3.35;2.53;;;;;;;;;;4995069;28;20106;-79
2022/09/13 07:06:28;;;;;;;10.15;4.80;;;;;;;;;;5003152;28;20100;-81
2022/09/13 07:08:55;;;;;;;5.63;3.42;;;;;;;;;;5014596;28;20106;-80
2022/09/13 07:11:24;;;;;;;5.45;3.38;;;;;;;;;;5013165;28;20045;-82
2022/09/13 07:13:55;;;;;;;5.15;3.55;;;;;;;;;;4996687;28;20029;-79
2022/09/13 07:16:22;;;;;;;3.92;2.92;;;;;;;;;;5011674;28;20025;-81
2022/09/13 07:18:52;;;;;;;28.73;11.45;;;;;;;;;;5010591;28;20105;-79
2022/09/13 07:21:18;;;;;;;79.38;32.65;;;;;;;;;;5002408;28;20034;-82
2022/09/13 07:23:44;;;;;;;54.20;19.65;;;;;;;;;;4994248;28;20109;-83
2022/09/13 07:26:14;;;;;;;47.17;19.30;;;;;;;;;;5004153;28;20100;-83
2022/09/13 07:28:41;;;;;;;34.55;12.52;;;;;;;;;;5012033;28;20041;-83
2022/09/13 07:31:21;;;;;;;3.95;3.42;;;;;;;;;;4994821;28;20478;-84
2022/09/13 07:33:54;;;;;;;4.80;3.00;;;;;;;;;;4994810;28;20501;-82
2022/09/13 07:36:20;;;;;;;5.43;3.05;;;;;;;;;;5014702;28;20025;-84
2022/09/13 07:38:48;;;;;;;3.83;2.97;;;;;;;;;;5013401;28;20381;-80
2022/09/13 07:41:16;;;;;;;3.60;3.28;;;;;;;;;;5012858;28;20104;-79
2022/09/13 07:43:42;;;;;;;5.03;3.75;;;;;;;;;;4995929;28;20054;-78
2022/09/13 07:46:10;;;;;;;6.68;4.15;;;;;;;;;;5013462;28;20025;-79
2022/09/13 07:48:38;;;;;;;4.57;3.60;;;;;;;;;;5014000;28;20030;-78
2022/09/13 07:51:12;;;;;;;4.88;3.35;;;;;;;;;;5013007;28;20041;-79
2022/09/13 07:53:38;;;;;;;4.45;3.63;;;;;;;;;;4992397;28;20140;-81
2022/09/13 07:56:09;;;;;;;4.65;3.80;;;;;;;;;;4994589;28;20475;-80
2022/09/13 07:58:36;;;;;;;3.33;3.00;;;;;;;;;;5010253;28;20108;-81
2022/09/13 08:01:28;;;;;;;5.30;3.53;;;;;;;;;;5013832;28;20040;-82
2022/09/13 08:04:13;;;;;;;16.20;14.70;;;;;;;;;;5010945;28;20482;-79
2022/09/13 08:06:39;;;;;;;44.78;40.70;;;;;;;;;;5024752;28;20034;-82
2022/09/13 08:09:08;;;;;;;3.42;3.13;;;;;;;;;;5033270;28;20087;-80
2022/09/13 08:11:42;;;;;;;14.40;7.63;;;;;;;;;;5033018;28;20761;-82
2022/09/13 08:14:09;;;;;;;4.82;3.85;;;;;;;;;;5032928;28;20018;-81
2022/09/13 08:16:35;;;;;;;4.90;3.58;;;;;;;;;;5032539;28;20064;-81
2022/09/13 08:19:11;;;;;;;3.88;3.22;;;;;;;;;;5033343;28;20099;-83
2022/09/13 08:21:38;;;;;;;3.83;3.17;;;;;;;;;;5033325;28;20026;-83
2022/09/13 08:24:04;;;;;;;4.32;3.83;;;;;;;;;;5032851;28;20028;-83
2022/09/13 08:26:32;;;;;;;5.93;3.30;;;;;;;;;;5014911;28;20468;-82
2022/09/13 08:29:02;;;;;;;4.22;3.42;;;;;;;;;;5030682;28;20501;-81
2022/09/13 08:31:28;;;;;;;4.28;3.88;;;;;;;;;;5001827;28;20022;-81
2022/09/13 08:33:55;;;;;;;5.22;3.80;;;;;;;;;;5010586;28;20060;-79
2022/09/13 08:36:22;;;;;;;5.57;4.60;;;;;;;;;;5011239;28;20049;-82
2022/09/13 08:38:53;;;;;;;7.05;4.13;;;;;;;;;;5011667;28;20081;-82
2022/09/13 08:41:41;;;;;;;4.50;4.10;;;;;;;;;;5013019;28;20026;-78
2022/09/13 08:44:07;;;;;;;3.55;2.97;;;;;;;;;;4990278;28;20783;-80
2022/09/13 08:46:44;;;;;;;4.45;3.70;;;;;;;;;;4992622;28;20049;-79
2022/09/13 08:49:29;;;;;;;3.63;2.97;;;;;;;;;;5008823;28;20026;-78
2022/09/13 08:52:13;;;;;;;4.43;3.42;;;;;;;;;;5016506;28;20022;-81
2022/09/13 08:54:39;;;;;;;8.13;4.38;;;;;;;;;;5020533;28;20104;-81
2022/09/13 08:57:24;;;;;;;3.97;3.03;;;;;;;;;;5022476;28;20061;-79
2022/09/13 09:00:02;;;;;;;3.53;3.03;;;;;;;;;;5018664;28;20493;-83
2022/09/13 09:02:36;;;;;;;4.28;3.00;;;;;;;;;;5020504;28;20032;-79
2022/09/13 09:05:21;;;;;;;3.47;2.75;;;;;;;;;;5015269;28;20079;-71
2022/09/13 09:07:51;;;;;;;4.22;2.40;;;;;;;;;;5019141;28;20155;-77
2022/09/13 09:10:33;;;;;;;3.67;2.63;;;;;;;;;;5006525;28;20037;-78
2022/09/13 09:13:06;;;;;;;4.53;3.83;;;;;;;;;;5004802;28;20497;-82
2022/09/13 09:15:36;;;;;;;3.38;2.63;;;;;;;;;;5015666;28;20477;-79
2022/09/13 09:18:02;;;;;;;5.00;3.03;;;;;;;;;;5018267;28;20076;-81
2022/09/13 09:20:31;;;;;;;3.65;2.92;;;;;;;;;;5019097;28;20025;-81
2022/09/13 09:23:00;;;;;;;3.83;2.60;;;;;;;;;;5014197;28;20032;-82
2022/09/13 09:25:26;;;;;;;3.63;2.75;;;;;;;;;;5017790;28;20032;-82
2022/09/13 09:27:53;;;;;;;5.03;2.75;;;;;;;;;;5031192;28;20120;-83
2022/09/13 09:30:19;;;;;;;3.20;2.88;;;;;;;;;;5026818;28;20022;-82
2022/09/13 09:32:46;;;;;;;3.88;2.90;;;;;;;;;;5019654;28;20025;-80
2022/09/13 09:35:12;;;;;;;3.00;2.70;;;;;;;;;;5011841;28;20074;-79
2022/09/13 09:37:39;;;;;;;5.35;4.47;;;;;;;;;;5016725;28;20424;-77
2022/09/13 09:40:09;;;;;;;4.10;3.00;;;;;;;;;;5012910;28;20448;-79
2022/09/13 09:42:53;;;;;;;3.60;3.15;;;;;;;;;;5016032;28;20029;-80
2022/09/13 09:45:31;;;;;;;6.93;4.65;;;;;;;;;;5016476;28;20388;-82
2022/09/13 09:48:00;;;;;;;5.45;3.72;;;;;;;;;;4996635;28;20097;-81
2022/09/13 09:50:30;;;;;;;3.72;3.28;;;;;;;;;;4993697;28;20022;-80
2022/09/13 09:53:05;;;;;;;4.55;3.53;;;;;;;;;;5013308;28;20036;-78
2022/09/13 09:55:34;;;;;;;5.20;3.70;;;;;;;;;;5010999;28;20033;-82
2022/09/13 09:58:03;;;;;;;6.65;4.32;;;;;;;;;;5008485;28;20508;-80
2022/09/13 10:00:31;;;;;;;5.28;4.00;;;;;;;;;;5012536;28;20499;-80
2022/09/13 10:03:02;;;;;;;5.00;3.90;;;;;;;;;;5011307;28;20029;-77
2022/09/13 10:05:31;;;;;;;3.67;3.33;;;;;;;;;;5010947;28;20034;-79
2022/09/13 10:08:07;;;;;;;4.05;3.65;;;;;;;;;;5003845;28;20026;-79
2022/09/13 10:10:35;;;;;;;3.42;3.13;;;;;;;;;;5007528;28;20018;-80
2022/09/13 10:13:01;;;;;;;4.57;4.07;;;;;;;;;;5009398;28;20173;-78
2022/09/13 10:15:34;;;;;;;4.32;3.17;;;;;;;;;;5010225;28;20030;-80
2022/09/13 10:18:26;;;;;;;4.68;3.00;;;;;;;;;;5011365;28;20564;-79
2022/09/13 10:21:11;;;;;;;4.82;2.72;;;;;;;;;;5013106;28;20045;-78
2022/09/13 10:23:38;;;;;;;3.17;2.95;;;;;;;;;;5014678;28;20098;-79
2022/09/13 10:26:09;;;;;;;3.88;2.78;;;;;;;;;;5019146;28;20044;-78
2022/09/13 10:28:42;;;;;;;2.60;2.40;;;;;;;;;;5019563;28;20026;-80
2022/09/13 10:31:10;;;;;;;5.40;2.63;;;;;;;;;;5020813;28;20028;-78
2022/09/13 10:33:38;;;;;;;4.38;2.60;;;;;;;;;;5012390;28;20053;-78
2022/09/13 10:36:12;;;;;;;4.03;2.65;;;;;;;;;;5021213;28;20481;-79
2022/09/13 10:38:38;;;;;;;;;;;;;;;;;;5018216;28;20151;-80
2022/09/13 10:41:07;;;;;;;8.43;7.68;;;;;;;;;;5013199;28;20015;-78
2022/09/13 10:43:33;;;;;;;5.28;4.78;;;;;;;;;;5015343;28;20496;-79
2022/09/13 10:46:01;;;;;;;3.00;2.70;;;;;;;;;;5024703;28;20112;-82
2022/09/13 10:48:28;;;;;;;2.90;2.60;;;;;;;;;;5021801;28;20026;-84
2022/09/13 10:51:14;;;;;;;2.92;2.63;;;;;;;;;;5027509;28;20110;-82
2022/09/13 10:53:41;;;;;;;3.88;3.13;;;;;;;;;;5019535;28;20022;-82
2022/09/13 10:56:27;;;;;;;3.90;3.50;;;;;;;;;;5015082;28;20032;-82
2022/09/13 10:59:13;;;;;;;3.30;3.10;;;;;;;;;;5016777;28;20033;-81
2022/09/13 11:01:45;;;;;;;3.50;3.20;;;;;;;;;;5016070;28;20033;-82
2022/09/13 11:06:55;;;;;;;3.90;3.50;;;;;;;;;;5016302;28;20236;-84
2022/09/13 11:09:27;;;;;;;4.78;4.28;;;;;;;;;;5016132;28;20022;-84
2022/09/13 11:12:03;;;;;;;3.70;3.35;;;;;;;;;;5023554;28;20030;-84
2022/09/13 11:14:29;;;;;;;3.28;2.80;;;;;;;;;;5018972;28;20069;-83
2022/09/13 11:17:12;;;;;;;3.85;3.45;;;;;;;;;;5015161;28;20030;-83
2022/09/13 11:19:56;;;;;;;3.30;3.00;;;;;;;;;;4998915;28;20037;-81
2022/09/13 11:22:25;;;;;;;4.18;3.45;;;;;;;;;;5017745;28;20025;-83
2022/09/13 11:24:55;;;;;;;4.03;3.53;;;;;;;;;;5021636;28;20029;-82
2022/09/13 11:27:36;;;;;;;8.38;6.90;;;;;;;;;;5002012;28;20391;-81
2022/09/13 11:30:21;;;;;;;4.47;4.07;;;;;;;;;;5014160;28;20117;-82
2022/09/13 11:32:52;;;;;;;4.30;3.90;;;;;;;;;;5009804;28;20033;-80
2022/09/13 11:35:46;;;;;;;45.22;41.33;;;;;;;;;;5011152;28;20376;-85
2022/09/13 11:38:31;;;;;;;6.47;5.97;;;;;;;;;;5014318;28;20018;-82
2022/09/13 11:41:16;;;;;;;4.35;3.80;;;;;;;;;;5014296;28;20021;-81
2022/09/13 11:43:57;;;;;;;3.85;3.55;;;;;;;;;;5010272;28;20045;-84
2022/09/13 11:46:32;;;;;;;4.32;3.92;;;;;;;;;;5019794;28;20114;-83
2022/09/13 11:49:08;;;;;;;4.00;3.60;;;;;;;;;;5007445;28;20022;-80
2022/09/13 11:51:34;;;;;;;4.90;4.00;;;;;;;;;;5015216;28;20045;-79
2022/09/13 11:54:00;;;;;;;5.05;4.55;;;;;;;;;;5012838;28;20117;-79
2022/09/13 11:56:31;;;;;;;6.00;4.63;;;;;;;;;;5014327;28;20452;-79
2022/09/13 11:59:15;;;;;;;4.82;4.00;;;;;;;;;;5014396;28;20102;-79
2022/09/13 12:01:47;;;;;;;4.18;3.30;;;;;;;;;;4995217;28;20041;-80
2022/09/13 12:04:25;;;;;;;4.07;3.35;;;;;;;;;;4993507;28;20034;-80
2022/09/13 12:06:54;;;;;;;4.43;3.70;;;;;;;;;;5008257;28;20088;-80
2022/09/13 12:09:23;;;;;;;3.83;3.53;;;;;;;;;;5005088;28;20029;-80
2022/09/13 12:11:54;;;;;;;6.25;4.00;;;;;;;;;;5010443;28;20029;-79
2022/09/13 12:14:25;;;;;;;4.22;3.92;;;;;;;;;;5008194;28;20473;-79
2022/09/13 12:17:10;;;;;;;11.68;10.65;;;;;;;;;;4993830;28;20033;-82
2022/09/13 12:19:48;;;;;;;6.50;6.00;;;;;;;;;;5013692;28;20113;-80
2022/09/13 12:22:15;;;;;;;3.78;3.30;;;;;;;;;;5008092;28;20030;-78
2022/09/13 12:24:52;;;;;;;6.75;6.15;;;;;;;;;;5011813;28;20109;-80
2022/09/13 12:27:24;;;;;;;5.43;4.82;;;;;;;;;;5011968;28;20060;-81
2022/09/13 12:29:52;;;;;;;4.15;3.75;;;;;;;;;;5014184;28;20496;-79
2022/09/13 12:32:19;;;;;;;7.70;7.03;;;;;;;;;;5008269;28;20037;-80
2022/09/13 12:35:03;;;;;;;3.80;3.50;;;;;;;;;;5023325;28;20052;-80
2022/09/13 12:37:41;;;;;;;5.80;5.30;;;;;;;;;;5012049;28;20492;-78
2022/09/13 12:40:11;;;;;;;4.75;3.00;;;;;;;;;;5010699;28;20041;-81
2022/09/13 12:42:56;;;;;;;4.53;3.00;;;;;;;;;;5011486;28;20021;-79
2022/09/13 12:45:34;;;;;;;4.55;3.30;;;;;;;;;;5012215;28;20436;-81
2022/09/13 12:48:17;;;;;;;3.58;3.28;;;;;;;;;;5010061;28;20400;-82
2022/09/13 12:50:43;;;;;;;4.15;3.45;;;;;;;;;;5009988;28;20071;-82
2022/09/13 12:53:15;;;;;;;4.53;3.38;;;;;;;;;;5020745;28;20026;-79
2022/09/13 12:55:42;;;;;;;14.75;5.68;;;;;;;;;;5019333;28;20342;-79
2022/09/13 12:58:16;;;;;;;2.47;2.22;;;;;;;;;;5015854;28;20088;-80
2022/09/13 13:00:48;;;;;;;4.57;3.10;;;;;;;;;;5012368;28;20548;-80
2022/09/13 13:03:18;;;;;;;3.72;2.67;;;;;;;;;;5011332;28;20380;-80
2022/09/13 13:06:02;;;;;;;2.75;2.50;;;;;;;;;;5012207;28;20025;-79
2022/09/13 13:08:29;;;;;;;4.38;3.30;;;;;;;;;;5023080;28;20021;-79
2022/09/13 13:11:02;;;;;;;4.57;3.03;;;;;;;;;;5017950;28;20083;-79
2022/09/13 13:13:54;;;;;;;3.25;2.63;;;;;;;;;;5009067;28;20018;-80
2022/09/13 13:16:26;;;;;;;3.78;2.92;;;;;;;;;;5012164;28;20058;-79
2022/09/13 13:18:54;;;;;;;3.00;2.70;;;;;;;;;;5012473;28;20040;-79
2022/09/13 13:21:38;;;;;;;4.05;2.47;;;;;;;;;;5013664;28;20392;-80
2022/09/13 13:24:04;;;;;;;;;;;;;;;;;;5012675;28;20041;-81
2022/09/13 13:26:49;;;;;;;2.80;2.10;;;;;;;;;;5012622;28;20291;-81
2022/09/13 13:29:17;;;;;;;2.63;1.92;;;;;;;;;;5013078;28;20030;-80
2022/09/13 13:31:45;;;;;;;4.25;3.53;;;;;;;;;;5012077;28;20022;-82
2022/09/13 13:34:14;;;;;;;5.18;2.90;;;;;;;;;;5012407;28;20111;-80
2022/09/13 13:36:40;;;;;;;4.18;2.58;;;;;;;;;;5014268;28;20029;-80
2022/09/13 13:39:09;;;;;;;2.95;2.65;;;;;;;;;;5012879;28;20025;-82
2022/09/13 13:41:37;;;;;;;2.72;2.10;;;;;;;;;;5012516;28;20503;-80
2022/09/13 13:44:16;;;;;;;3.45;2.40;;;;;;;;;;5018962;28;20441;-82
2022/09/13 13:46:43;;;;;;;3.00;2.22;;;;;;;;;;5021124;28;20065;-82
2022/09/13 13:49:28;;;;;;;3.28;2.53;;;;;;;;;;5012927;28;20113;-81
2022/09/13 13:52:15;;;;;;;2.72;2.33;;;;;;;;;;5019704;28;20018;-80
2022/09/13 13:54:49;;;;;;;2.60;2.13;;;;;;;;;;5022536;28;20470;-80
2022/09/13 13:57:24;;;;;;;1.92;1.83;;;;;;;;;;5021274;28;20468;-81
2022/09/13 13:59:51;;;;;;;2.33;1.55;;;;;;;;;;5020929;28;20033;-81
2022/09/13 14:02:20;;;;;;;2.40;2.20;;;;;;;;;;5019010;28;20088;-81
2022/09/13 14:04:46;;;;;;;2.35;2.17;;;;;;;;;;5018697;28;20041;-82
2022/09/13 14:07:30;;;;;;;3.38;2.83;;;;;;;;;;5023450;28;20029;-80
2022/09/13 14:10:26;;;;;;;4.05;2.35;;;;;;;;;;5024042;28;20534;-81
2022/09/13 14:13:12;;;;;;;2.45;1.70;;;;;;;;;;4989213;28;20046;-81
2022/09/13 14:15:56;;;;;;;5.60;2.17;;;;;;;;;;4983309;28;20057;-82
2022/09/13 14:18:41;;;;;;;2.42;1.90;;;;;;;;;;4992863;28;20035;-81
2022/09/13 14:21:07;;;;;;;;;;;;;;;;;;4993552;28;20061;-80
2022/09/13 14:23:34;;;;;;;3.75;2.05;;;;;;;;;;5009131;28;19916;-79
2022/09/13 14:26:00;;;;;;;1.95;1.85;;;;;;;;;;5011398;28;20029;-82
2022/09/13 14:28:27;;;;;;;2.65;2.03;;;;;;;;;;5011961;28;20062;-83
2022/09/13 14:30:54;;;;;;;1.83;1.50;;;;;;;;;;5011549;28;20068;-83
2022/09/13 14:33:39;;;;;;;2.42;1.85;;;;;;;;;;5001540;28;20049;-85
2022/09/13 14:36:07;;;;;;;1.85;1.63;;;;;;;;;;4996074;28;20033;-85
2022/09/13 14:38:35;;;;;;;4.20;2.10;;;;;;;;;;5013455;28;20449;-83
2022/09/13 14:41:03;;;;;;;3.17;2.28;;;;;;;;;;5011412;28;20057;-84
2022/09/13 14:43:30;;;;;;;2.42;1.77;;;;;;;;;;5012181;28;20397;-82
2022/09/13 14:46:00;;;;;;;3.53;1.80;;;;;;;;;;5009965;28;20029;-82
2022/09/13 14:48:32;;;;;;;2.17;1.90;;;;;;;;;;5010848;28;20029;-82
2022/09/13 14:51:13;;;;;;;3.35;2.80;;;;;;;;;;5021861;28;20439;-84
2022/09/13 14:53:40;;;;;;;1.30;1.20;;;;;;;;;;4996437;28;20018;-82
2022/09/13 14:56:17;;;;;;;1.90;1.58;;;;;;;;;;5010557;28;20049;-83
2022/09/13 14:58:48;;;;;;;2.63;1.77;;;;;;;;;;5012520;28;20350;-83
2022/09/13 15:01:19;;;;;;;2.15;1.30;;;;;;;;;;5011647;28;20030;-83
2022/09/13 15:03:46;;;;;;;3.53;1.67;;;;;;;;;;4992835;28;20061;-82
2022/09/13 15:06:23;;;;;;;3.25;1.70;;;;;;;;;;4995543;28;20026;-83
2022/09/13 15:08:51;;;;;;;2.33;1.33;;;;;;;;;;5011011;28;20075;-81
2022/09/13 15:11:36;;;;;;;2.08;1.40;;;;;;;;;;5022188;28;20030;-80